Time;durP1;ratioP1;P1;durP2;ratioP2;P2;SDS_P1;SDS_P2;PMS_P1;PMS_P2;Temp;Humidity;BMP_temperature;BMP_pressure;BME280_temperature;BME280_humidity;BME280_pressure;Samples;Min_cycle;Max_cycle;Signal;HPM_P1;HPM_P2
2022/08/12 00:44:43;;;;;;;;;;;;;;;;;;5091976;28;19912;-42
2022/08/12 00:47:09;;;;;;;;;;;;;;;;;;5091951;28;19912;-42
2022/08/12 00:49:34;;;;;;;;;;;;;;;;;;5092153;28;19965;-42
2022/08/12 00:52:05;;;;;;;;;;;;;;;;;;5092108;28;19960;-42
2022/08/12 00:54:30;;;;;;;;;;;;;;;;;;5091751;28;20362;-43
2022/08/12 00:56:56;;;;;;;;;;;;;;;;;;5091700;28;19919;-42
2022/08/12 00:59:23;;;;;;;;;;;;;;;;;;5091972;28;19912;-43
2022/08/12 01:01:48;;;;;;;;;;;;;;;;;;5091755;28;20366;-42
2022/08/12 01:12:25;;;;;;;;;;;;;;;;;;5095747;28;20026;-43
2022/08/12 01:14:52;;;;;;;;;;;;;;;;;;5095519;28;20377;-42
2022/08/12 01:17:18;;;;;;;;;;;;;;;;;;5095712;28;19923;-42
2022/08/12 01:19:43;;;;;;;;;;;;;;;;;;5095570;28;19916;-43
2022/08/12 01:22:09;;;;;;;;;;;;;;;;;;5095339;28;19957;-42
2022/08/12 01:24:35;;;;;;;;;;;;;;;;;;5095599;28;19914;-43
2022/08/12 01:27:02;;;;;;;;;;;;;;;;;;5095292;28;19912;-43
2022/08/12 01:29:27;;;;;;;;;;;;;;;;;;5095329;28;20366;-42
2022/08/12 01:31:52;;;;;;;;;;;;;;;;;;5095316;28;19969;-43
2022/08/12 01:34:18;;;;;;;;;;;;;;;;;;5095536;28;19966;-43
2022/08/12 01:36:44;;;;;;;;;;;;;;;;;;5095203;28;19999;-42
2022/08/12 01:39:09;;;;;;;;;;;;;;;;;;5094150;28;20362;-42
2022/08/12 01:41:34;;;;;;;;;;;;;;;;;;5095240;28;20016;-43
2022/08/12 01:44:00;;;;;;;;;;;;;;;;;;5095006;28;20053;-42
2022/08/12 01:46:25;;;;;;;;;;;;;;;;;;5094967;28;20381;-42
2022/08/12 01:48:51;;;;;;;;;;;;;;;;;;5094929;28;19915;-42
2022/08/12 01:51:16;;;;;;;;;;;;;;;;;;5094972;28;19923;-42
2022/08/12 01:53:45;;;;;;;;;;;;;;;;;;5094991;28;19911;-44
2022/08/12 01:56:11;;;;;;;;;;;;;;;;;;5095064;28;19919;-43
2022/08/12 01:59:45;;;;;;;;;;;;;;;;;;5094979;28;19912;-43
2022/08/12 02:01:21;;;;;;;;;;;;;;;;;;5094687;28;19931;-42
2022/08/12 02:11:58;;;;;;;;;;;;;;;;;;5094674;28;19935;-43
2022/08/12 02:14:23;;;;;;;;;;;;;;;;;;5094622;28;19908;-43
2022/08/12 02:16:49;;;;;;;;;;;;;;;;;;5094410;28;19916;-43
2022/08/12 02:19:15;;;;;;;;;;;;;;;;;;5093824;28;20007;-42
2022/08/12 02:21:40;;;;;;;;;;;;;;;;;;5094056;28;20072;-42
2022/08/12 02:24:05;;;;;;;;;;;;;;;;;;5093047;28;20393;-42
2022/08/12 02:26:31;;;;;;;;;;;;;;;;;;5094524;28;19918;-42
2022/08/12 02:28:56;;;;;;;;;;;;;;;;;;5094465;28;19915;-42
2022/08/12 02:31:22;;;;;;;;;;;;;;;;;;5094545;28;19912;-42
2022/08/12 02:33:48;;;;;;;;;;;;;;;;;;5094427;28;20262;-42
2022/08/12 02:36:15;;;;;;;;;;;;;;;;;;5094040;28;19916;-43
2022/08/12 02:38:40;;;;;;;;;;;;;;;;;;5094067;28;19964;-42
2022/08/12 02:41:05;;;;;;;;;;;;;;;;;;5093848;28;19967;-42
2022/08/12 02:43:31;;;;;;;;;;;;;;;;;;5094187;28;19950;-42
2022/08/12 02:45:56;;;;;;;;;;;;;;;;;;5092467;28;20329;-42
2022/08/12 02:48:21;;;;;;;;;;;;;;;;;;5094170;28;20024;-43
2022/08/12 02:50:46;;;;;;;;;;;;;;;;;;5093796;28;19966;-43
2022/08/12 02:53:12;;;;;;;;;;;;;;;;;;5093711;28;19908;-42
2022/08/12 02:55:37;;;;;;;;;;;;;;;;;;5093652;28;19938;-43
2022/08/12 02:58:02;;;;;;;;;;;;;;;;;;5093873;28;19908;-42
2022/08/12 03:00:28;;;;;;;;;;;;;;;;;;5093605;28;19927;-42
2022/08/12 03:02:53;;;;;;;;;;;;;;;;;;5093490;28;20003;-43
2022/08/12 03:05:18;;;;;;;;;;;;;;;;;;5093878;28;19955;-42
2022/08/12 03:07:44;;;;;;;;;;;;;;;;;;5093736;28;20362;-42
2022/08/12 03:10:09;;;;;;;;;;;;;;;;;;5093360;28;19916;-43
2022/08/12 03:12:35;;;;;;;;;;;;;;;;;;5093701;28;19952;-42
2022/08/12 03:15:01;;;;;;;;;;;;;;;;;;5093141;28;20427;-42
2022/08/12 03:17:26;;;;;;;;;;;;;;;;;;5093116;28;19951;-42
2022/08/12 03:19:53;;;;;;;;;;;;;;;;;;5093151;28;19928;-42
2022/08/12 03:22:18;;;;;;;;;;;;;;;;;;5093216;28;19961;-42
2022/08/12 03:24:44;;;;;;;;;;;;;;;;;;5093237;28;19912;-43
2022/08/12 03:27:09;;;;;;;;;;;;;;;;;;5093011;28;19915;-42
2022/08/12 03:29:34;;;;;;;;;;;;;;;;;;5091759;28;20483;-43
2022/08/12 03:32:00;;;;;;;;;;;;;;;;;;5092843;28;19923;-42
2022/08/12 03:34:28;;;;;;;;;;;;;;;;;;5093082;28;19919;-42
2022/08/12 03:36:53;;;;;;;;;;;;;;;;;;5092787;28;19908;-42
2022/08/12 03:39:40;;;;;;;;;;;;;;;;;;5092826;28;19912;-42
2022/08/12 03:42:05;;;;;;;;;;;;;;;;;;5092750;28;20338;-43
2022/08/12 04:00:54;;;;;;;;;;;;;;;;;;5092377;28;20434;-42
2022/08/12 04:06:03;;;;;;;;;;;;;;;;;;5092547;28;20274;-42
2022/08/12 04:08:28;;;;;;;;;;;;;;;;;;5092737;28;19915;-42
2022/08/12 04:13:39;;;;;;;;;;;;;;;;;;5092252;28;19959;-43
2022/08/12 04:16:06;;;;;;;;;;;;;;;;;;5092158;28;19962;-42
2022/08/12 04:18:31;;;;;;;;;;;;;;;;;;5092229;28;20305;-42
2022/08/12 04:20:57;;;;;;;;;;;;;;;;;;5092303;28;20015;-42
2022/08/12 04:23:24;;;;;;;;;;;;;;;;;;5092176;28;19916;-42
2022/08/12 04:25:49;;;;;;;;;;;;;;;;;;5092131;28;19908;-43
2022/08/12 04:28:14;;;;;;;;;;;;;;;;;;5092076;28;19912;-42
2022/08/12 04:30:40;;;;;;;;;;;;;;;;;;5092092;28;19908;-42
2022/08/12 04:33:05;;;;;;;;;;;;;;;;;;5091912;28;19937;-42
2022/08/12 04:35:30;;;;;;;;;;;;;;;;;;5091968;28;20007;-42
2022/08/12 04:37:56;;;;;;;;;;;;;;;;;;5092254;28;19962;-42
2022/08/12 04:40:21;;;;;;;;;;;;;;;;;;5090613;28;19920;-43
2022/08/12 04:42:46;;;;;;;;;;;;;;;;;;5091663;28;19916;-42
2022/08/12 04:45:12;;;;;;;;;;;;;;;;;;5091933;28;20381;-42
2022/08/12 04:47:37;;;;;;;;;;;;;;;;;;5091750;28;20251;-43
2022/08/12 04:50:02;;;;;;;;;;;;;;;;;;5091820;28;19908;-43
2022/08/12 04:52:27;;;;;;;;;;;;;;;;;;5092159;28;19912;-43
2022/08/12 04:54:53;;;;;;;;;;;;;;;;;;5092013;28;19914;-42
2022/08/12 04:57:18;;;;;;;;;;;;;;;;;;5091783;28;19912;-42
2022/08/12 04:59:43;;;;;;;;;;;;;;;;;;5091784;28;20003;-42
2022/08/12 05:02:09;;;;;;;;;;;;;;;;;;5091679;28;19950;-42
2022/08/12 05:04:34;;;;;;;;;;;;;;;;;;5091777;28;19912;-42
2022/08/12 05:07:01;;;;;;;;;;;;;;;;;;5091847;28;20014;-42
2022/08/12 05:09:26;;;;;;;;;;;;;;;;;;5091798;28;19915;-42
2022/08/12 05:11:51;;;;;;;;;;;;;;;;;;5091987;28;19913;-45
2022/08/12 05:14:16;;;;;;;;;;;;;;;;;;5091615;28;20398;-42
2022/08/12 05:16:42;;;;;;;;;;;;;;;;;;5091839;28;19912;-42
2022/08/12 05:19:07;;;;;;;;;;;;;;;;;;5091356;28;19920;-43
2022/08/12 05:21:32;;;;;;;;;;;;;;;;;;5091625;28;19920;-42
2022/08/12 05:23:58;;;;;;;;;;;;;;;;;;5091730;28;19912;-42
2022/08/12 05:26:23;;;;;;;;;;;;;;;;;;5091574;28;19916;-42
2022/08/12 05:28:49;;;;;;;;;;;;;;;;;;5091886;28;19985;-42
2022/08/12 05:31:15;;;;;;;;;;;;;;;;;;5091337;28;19916;-42
2022/08/12 05:33:40;;;;;;;;;;;;;;;;;;5091777;28;19919;-43
2022/08/12 05:36:09;;;;;;;;;;;;;;;;;;5091363;28;20329;-42
2022/08/12 05:41:19;;;;;;;;;;;;;;;;;;5091402;28;19967;-42
2022/08/12 05:43:44;;;;;;;;;;;;;;;;;;5091410;28;19951;-42
2022/08/12 05:46:09;;;;;;;;;;;;;;;;;;5091190;28;19985;-42
2022/08/12 05:48:35;;;;;;;;;;;;;;;;;;5091326;28;19912;-42
2022/08/12 05:51:00;;;;;;;;;;;;;;;;;;5091325;28;19916;-42
2022/08/12 05:53:26;;;;;;;;;;;;;;;;;;5091543;28;19916;-42
2022/08/12 05:55:52;;;;;;;;;;;;;;;;;;5093088;28;20004;-43
2022/08/12 05:58:19;;;;;;;;;;;;;;;;;;5094808;28;20124;-42
2022/08/12 06:00:44;;;;;;;;;;;;;;;;;;5095006;28;19993;-42
2022/08/12 06:03:10;;;;;;;;;;;;;;;;;;5093840;28;20445;-43
2022/08/12 06:05:36;;;;;;;;;;;;;;;;;;5094905;28;19912;-42
2022/08/12 06:08:01;;;;;;;;;;;;;;;;;;5094674;28;19935;-43
2022/08/12 06:10:26;;;;;;;;;;;;;;;;;;5095012;28;19926;-43
2022/08/12 06:12:52;;;;;;;;;;;;;;;;;;5094501;28;19915;-42
2022/08/12 06:15:17;;;;;;;;;;;;;;;;;;5094377;28;19912;-43
2022/08/12 06:17:43;;;;;;;;;;;;;;;;;;5094379;28;19942;-42
2022/08/12 06:20:12;;;;;;;;;;;;;;;;;;5094494;28;19920;-43
2022/08/12 06:22:38;;;;;;;;;;;;;;;;;;5094797;28;19908;-42
2022/08/12 06:25:04;;;;;;;;;;;;;;;;;;5094322;28;20354;-42
2022/08/12 06:27:29;;;;;;;;;;;;;;;;;;5094208;28;19918;-42
2022/08/12 06:29:55;;;;;;;;;;;;;;;;;;5094267;28;19959;-42
2022/08/12 06:32:20;;;;;;;;;;;;;;;;;;5094208;28;19915;-43
2022/08/12 06:34:46;;;;;;;;;;;;;;;;;;5094165;28;19935;-42
2022/08/12 06:37:11;;;;;;;;;;;;;;;;;;5094088;28;20002;-42
2022/08/12 06:39:37;;;;;;;;;;;;;;;;;;5094002;28;20010;-42
2022/08/12 06:44:46;;;;;;;;;;;;;;;;;;5094063;28;20365;-42
2022/08/12 06:47:15;;;;;;;;;;;;;;;;;;5094085;28;19934;-44
2022/08/12 06:49:40;;;;;;;;;;;;;;;;;;5093803;28;20350;-42
2022/08/12 06:52:06;;;;;;;;;;;;;;;;;;5094104;28;19958;-42
2022/08/12 06:54:33;;;;;;;;;;;;;;;;;;5093792;28;20389;-42
2022/08/12 06:56:58;;;;;;;;;;;;;;;;;;5093707;28;19973;-42
2022/08/12 06:59:24;;;;;;;;;;;;;;;;;;5094013;28;19957;-42
2022/08/12 07:01:49;;;;;;;;;;;;;;;;;;5092450;28;20310;-42
2022/08/12 07:04:14;;;;;;;;;;;;;;;;;;5093588;28;20397;-43
2022/08/12 07:06:40;;;;;;;;;;;;;;;;;;5093248;28;19912;-42
2022/08/12 07:09:05;;;;;;;;;;;;;;;;;;5093789;28;19920;-42
2022/08/12 07:11:32;;;;;;;;;;;;;;;;;;5093506;28;19915;-43
2022/08/12 07:13:59;;;;;;;;;;;;;;;;;;5093566;28;19931;-42
2022/08/12 07:16:27;;;;;;;;;;;;;;;;;;5093372;28;19915;-43
2022/08/12 07:18:54;;;;;;;;;;;;;;;;;;5093089;28;20350;-42
2022/08/12 07:21:19;;;;;;;;;;;;;;;;;;5093176;28;19916;-42
2022/08/12 07:23:45;;;;;;;;;;;;;;;;;;5093223;28;19922;-41
2022/08/12 07:26:10;;;;;;;;;;;;;;;;;;5093224;28;19999;-42
2022/08/12 07:28:35;;;;;;;;;;;;;;;;;;5092005;28;19923;-42
2022/08/12 07:31:03;;;;;;;;;;;;;;;;;;5092918;28;19959;-42
2022/08/12 07:33:29;;;;;;;;;;;;;;;;;;5091903;28;20354;-42
2022/08/12 07:35:55;;;;;;;;;;;;;;;;;;5092964;28;19908;-42
2022/08/12 07:38:23;;;;;;;;;;;;;;;;;;5093189;28;19919;-43
2022/08/12 07:40:48;;;;;;;;;;;;;;;;;;5092949;28;20269;-41
2022/08/12 07:43:14;;;;;;;;;;;;;;;;;;5093064;28;19916;-42
2022/08/12 07:45:39;;;;;;;;;;;;;;;;;;5092779;28;20388;-43
2022/08/12 07:48:05;;;;;;;;;;;;;;;;;;5092799;28;20003;-42
2022/08/12 07:50:30;;;;;;;;;;;;;;;;;;5093018;28;19908;-43
2022/08/12 07:52:58;;;;;;;;;;;;;;;;;;5092860;28;20129;-43
2022/08/12 07:55:23;;;;;;;;;;;;;;;;;;5092598;28;19912;-43
2022/08/12 07:57:49;;;;;;;;;;;;;;;;;;5092657;28;19912;-42
2022/08/12 08:00:14;;;;;;;;;;;;;;;;;;5092368;28;19967;-42
2022/08/12 08:02:40;;;;;;;;;;;;;;;;;;5092757;28;20011;-42
2022/08/12 08:05:05;;;;;;;;;;;;;;;;;;5092409;28;20381;-42
2022/08/12 08:07:30;;;;;;;;;;;;;;;;;;5092695;28;19916;-42
2022/08/12 08:09:58;;;;;;;;;;;;;;;;;;5092292;28;20006;-43
2022/08/12 08:15:09;;;;;;;;;;;;;;;;;;5092177;28;20382;-43
2022/08/12 08:17:36;;;;;;;;;;;;;;;;;;5091449;28;20386;-42
2022/08/12 08:20:01;;;;;;;;;;;;;;;;;;5092449;28;19928;-42
2022/08/12 08:22:26;;;;;;;;;;;;;;;;;;5092137;28;20061;-42
2022/08/12 08:24:56;;;;;;;;;;;;;;;;;;5091006;28;19919;-42
2022/08/12 08:27:21;;;;;;;;;;;;;;;;;;5092376;28;19915;-42
2022/08/12 08:29:47;;;;;;;;;;;;;;;;;;5092114;28;19912;-42
2022/08/12 08:32:13;;;;;;;;;;;;;;;;;;5091944;28;20061;-42
2022/08/12 08:34:38;;;;;;;;;;;;;;;;;;5092060;28;19919;-43
2022/08/12 08:37:03;;;;;;;;;;;;;;;;;;5091966;28;19914;-42
2022/08/12 08:39:30;;;;;;;;;;;;;;;;;;5091978;28;20243;-42
2022/08/12 08:44:40;;;;;;;;;;;;;;;;;;5091939;28;20381;-42
2022/08/12 08:47:08;;;;;;;;;;;;;;;;;;5090638;28;19908;-42
2022/08/12 08:49:37;;;;;;;;;;;;;;;;;;5091817;28;19916;-42
2022/08/12 08:52:02;;;;;;;;;;;;;;;;;;5091856;28;20319;-43
2022/08/12 08:54:32;;;;;;;;;;;;;;;;;;5091894;28;19913;-42
2022/08/12 08:56:57;;;;;;;;;;;;;;;;;;5091932;28;19926;-42
2022/08/12 08:59:22;;;;;;;;;;;;;;;;;;5091857;28;19994;-42
2022/08/12 09:01:48;;;;;;;;;;;;;;;;;;5091693;28;19920;-41
2022/08/12 09:04:13;;;;;;;;;;;;;;;;;;5091978;28;19916;-42
2022/08/12 09:06:40;;;;;;;;;;;;;;;;;;5091671;28;20380;-42
2022/08/12 09:09:05;;;;;;;;;;;;;;;;;;5091716;28;19947;-43
2022/08/12 09:14:14;;;;;;;;;;;;;;;;;;5091609;28;20290;-42
2022/08/12 09:16:40;;;;;;;;;;;;;;;;;;5091683;28;19912;-43
2022/08/12 09:19:06;;;;;;;;;;;;;;;;;;5091424;28;19924;-42
2022/08/12 09:21:32;;;;;;;;;;;;;;;;;;5091689;28;19923;-43
2022/08/12 09:23:59;;;;;;;;;;;;;;;;;;5091490;28;19916;-42
2022/08/12 09:26:26;;;;;;;;;;;;;;;;;;5091429;28;20334;-42
2022/08/12 09:28:51;;;;;;;;;;;;;;;;;;5092182;28;19912;-42
2022/08/12 09:31:16;;;;;;;;;;;;;;;;;;5095309;28;19912;-43
2022/08/12 09:33:42;;;;;;;;;;;;;;;;;;5095430;28;19916;-42
2022/08/12 09:36:07;;;;;;;;;;;;;;;;;;5095497;28;19912;-42
2022/08/12 09:38:32;;;;;;;;;;;;;;;;;;5095637;28;20499;-43
2022/08/12 09:40:58;;;;;;;;;;;;;;;;;;5095128;28;20270;-43
2022/08/12 09:46:09;;;;;;;;;;;;;;;;;;5095257;28;20310;-41
2022/08/12 09:48:34;;;;;;;;;;;;;;;;;;5095070;28;19926;-42
2022/08/12 09:50:59;;;;;;;;;;;;;;;;;;5095298;28;19912;-42
2022/08/12 09:53:25;;;;;;;;;;;;;;;;;;5093780;28;19912;-43
2022/08/12 09:55:53;;;;;;;;;;;;;;;;;;5094902;28;19959;-42
2022/08/12 09:58:18;;;;;;;;;;;;;;;;;;5094911;28;20641;-42
2022/08/12 10:00:44;;;;;;;;;;;;;;;;;;5094746;28;19924;-43
2022/08/12 10:03:09;;;;;;;;;;;;;;;;;;5094839;28;19912;-43
2022/08/12 10:05:37;;;;;;;;;;;;;;;;;;5094786;28;20326;-42
2022/08/12 10:08:03;;;;;;;;;;;;;;;;;;5094659;28;19915;-42
2022/08/12 10:10:28;;;;;;;;;;;;;;;;;;5094954;28;19912;-42
2022/08/12 10:15:38;;;;;;;;;;;;;;;;;;5094514;28;19912;-42
2022/08/12 10:18:04;;;;;;;;;;;;;;;;;;5094515;28;20332;-43
2022/08/12 10:20:29;;;;;;;;;;;;;;;;;;5093205;28;20355;-43
2022/08/12 10:22:56;;;;;;;;;;;;;;;;;;5094453;28;20002;-43
2022/08/12 10:30:51;;;;;;;;;;;;;;;;;;5094240;28;20381;-42
2022/08/12 10:33:17;;;;;;;;;;;;;;;;;;5094148;28;19916;-42
2022/08/12 10:35:42;;;;;;;;;;;;;;;;;;5094507;28;20011;-42
2022/08/12 10:38:09;;;;;;;;;;;;;;;;;;5094037;28;19951;-42
2022/08/12 10:43:39;;;;;;;;;;;;;;;;;;5093550;28;19920;-42
2022/08/12 10:46:06;;;;;;;;;;;;;;;;;;5093929;28;20292;-42
2022/08/12 10:48:32;;;;;;;;;;;;;;;;;;5093936;28;19908;-43
2022/08/12 10:50:57;;;;;;;;;;;;;;;;;;5093746;28;20280;-43
2022/08/12 10:53:23;;;;;;;;;;;;;;;;;;5092587;28;19908;-42
2022/08/12 10:55:50;;;;;;;;;;;;;;;;;;5093867;28;19912;-42
2022/08/12 10:58:16;;;;;;;;;;;;;;;;;;5093680;28;19919;-43
2022/08/12 11:00:41;;;;;;;;;;;;;;;;;;5093636;28;19924;-42
2022/08/12 11:03:08;;;;;;;;;;;;;;;;;;5093909;28;20274;-42
2022/08/12 11:05:35;;;;;;;;;;;;;;;;;;5093522;28;20350;-43
2022/08/12 11:08:01;;;;;;;;;;;;;;;;;;5093500;28;19919;-42
2022/08/12 11:10:26;;;;;;;;;;;;;;;;;;5093643;28;20293;-42
2022/08/12 11:12:55;;;;;;;;;;;;;;;;;;5093406;28;19908;-42
2022/08/12 11:15:22;;;;;;;;;;;;;;;;;;5093260;28;19916;-42
2022/08/12 11:17:47;;;;;;;;;;;;;;;;;;5093242;28;19916;-43
2022/08/12 11:20:13;;;;;;;;;;;;;;;;;;5091962;28;19920;-42
2022/08/12 11:22:38;;;;;;;;;;;;;;;;;;5093311;28;19944;-44
2022/08/12 11:25:03;;;;;;;;;;;;;;;;;;5093215;28;19912;-43
2022/08/12 11:27:29;;;;;;;;;;;;;;;;;;5093144;28;20362;-42
2022/08/12 11:29:54;;;;;;;;;;;;;;;;;;5093310;28;19912;-42
2022/08/12 11:32:20;;;;;;;;;;;;;;;;;;5093016;28;20290;-42
2022/08/12 11:34:45;;;;;;;;;;;;;;;;;;5091703;28;19916;-42
2022/08/12 11:37:10;;;;;;;;;;;;;;;;;;5092988;28;19920;-42
2022/08/12 11:39:36;;;;;;;;;;;;;;;;;;5092920;28;19920;-42
2022/08/12 11:42:01;;;;;;;;;;;;;;;;;;5092793;28;19919;-42
2022/08/12 11:44:27;;;;;;;;;;;;;;;;;;5092915;28;19920;-42
2022/08/12 11:46:56;;;;;;;;;;;;;;;;;;5092796;28;19908;-43
2022/08/12 11:49:22;;;;;;;;;;;;;;;;;;5091426;28;19931;-43
2022/08/12 11:51:47;;;;;;;;;;;;;;;;;;5092787;28;19912;-43
2022/08/12 11:54:13;;;;;;;;;;;;;;;;;;5092721;28;20004;-42
2022/08/12 11:56:38;;;;;;;;;;;;;;;;;;5092585;28;19965;-41
2022/08/12 11:59:03;;;;;;;;;;;;;;;;;;5092489;28;20010;-42
2022/08/12 12:01:29;;;;;;;;;;;;;;;;;;5092422;28;19924;-42
2022/08/12 12:03:55;;;;;;;;;;;;;;;;;;5092640;28;19922;-42
2022/08/12 12:06:21;;;;;;;;;;;;;;;;;;5092375;28;19938;-42
2022/08/12 12:08:47;;;;;;;;;;;;;;;;;;5092482;28;19916;-42
2022/08/12 12:11:13;;;;;;;;;;;;;;;;;;5092271;28;19915;-42
2022/08/12 12:13:38;;;;;;;;;;;;;;;;;;5092436;28;19912;-42
2022/08/12 12:16:04;;;;;;;;;;;;;;;;;;5091059;28;19916;-42
2022/08/12 12:18:30;;;;;;;;;;;;;;;;;;5092161;28;20290;-42
2022/08/12 12:20:55;;;;;;;;;;;;;;;;;;5092281;28;19916;-42
2022/08/12 12:23:22;;;;;;;;;;;;;;;;;;5091386;28;20282;-42
2022/08/12 12:25:48;;;;;;;;;;;;;;;;;;5092463;28;19912;-42
2022/08/12 12:28:13;;;;;;;;;;;;;;;;;;5092376;28;20359;-42
2022/08/12 12:30:39;;;;;;;;;;;;;;;;;;5092083;28;20263;-42
2022/08/12 12:33:07;;;;;;;;;;;;;;;;;;5092029;28;19923;-42
2022/08/12 12:35:32;;;;;;;;;;;;;;;;;;5090846;28;19999;-42
2022/08/12 12:37:58;;;;;;;;;;;;;;;;;;5092003;28;20019;-42
2022/08/12 12:40:24;;;;;;;;;;;;;;;;;;5091892;28;19916;-42
2022/08/12 12:42:49;;;;;;;;;;;;;;;;;;5090775;28;20467;-42
2022/08/12 12:45:15;;;;;;;;;;;;;;;;;;5090558;28;20456;-41
2022/08/12 12:47:40;;;;;;;;;;;;;;;;;;5092016;28;19977;-42
2022/08/12 12:50:06;;;;;;;;;;;;;;;;;;5091856;28;19965;-42
2022/08/12 12:52:32;;;;;;;;;;;;;;;;;;5092156;28;19969;-42
2022/08/12 12:54:58;;;;;;;;;;;;;;;;;;5091998;28;19977;-42
2022/08/12 12:57:24;;;;;;;;;;;;;;;;;;5092108;28;19923;-43
2022/08/12 13:00:13;;;;;;;;;;;;;;;;;;5091787;28;20350;-42
2022/08/12 13:02:39;;;;;;;;;;;;;;;;;;5091840;28;19923;-42
2022/08/12 13:05:04;;;;;;;;;;;;;;;;;;5094173;28;19920;-42
2022/08/12 13:07:29;;;;;;;;;;;;;;;;;;5095946;28;19916;-42
2022/08/12 13:09:55;;;;;;;;;;;;;;;;;;5095904;28;19911;-42
2022/08/12 13:12:20;;;;;;;;;;;;;;;;;;5095788;28;19916;-42
2022/08/12 13:14:45;;;;;;;;;;;;;;;;;;5095734;28;19912;-42
2022/08/12 13:17:11;;;;;;;;;;;;;;;;;;5095962;28;19916;-42
2022/08/12 13:19:37;;;;;;;;;;;;;;;;;;5094241;28;19930;-42
2022/08/12 13:22:17;;;;;;;;;;;;;;;;;;5095816;28;19981;-42
2022/08/12 13:24:43;;;;;;;;;;;;;;;;;;5095631;28;19919;-42
2022/08/12 13:27:08;;;;;;;;;;;;;;;;;;5094173;28;20282;-43
2022/08/12 13:29:37;;;;;;;;;;;;;;;;;;5095570;28;20281;-43
2022/08/12 13:32:04;;;;;;;;;;;;;;;;;;5095346;28;19943;-42
2022/08/12 13:34:31;;;;;;;;;;;;;;;;;;5095285;28;19912;-43
2022/08/12 13:36:56;;;;;;;;;;;;;;;;;;5095468;28;19912;-43
2022/08/12 13:39:22;;;;;;;;;;;;;;;;;;5095179;28;19965;-42
2022/08/12 13:41:47;;;;;;;;;;;;;;;;;;5095162;28;19946;-42
2022/08/12 13:44:12;;;;;;;;;;;;;;;;;;5095076;28;19935;-42
2022/08/12 13:46:39;;;;;;;;;;;;;;;;;;5095444;28;19987;-43
2022/08/12 13:49:06;;;;;;;;;;;;;;;;;;5076941;28;20358;-42
2022/08/12 13:51:31;;;;;;;;;;;;;;;;;;5095156;28;19919;-42
2022/08/12 13:53:57;;;;;;;;;;;;;;;;;;5095064;28;19920;-42
2022/08/12 13:56:25;;;;;;;;;;;;;;;;;;5095118;28;19912;-42
2022/08/12 13:58:51;;;;;;;;;;;;;;;;;;5095211;28;19916;-42
2022/08/12 14:01:16;;;;;;;;;;;;;;;;;;5095084;28;20398;-42
2022/08/12 14:03:41;;;;;;;;;;;;;;;;;;5094831;28;20271;-42
2022/08/12 14:06:07;;;;;;;;;;;;;;;;;;5094728;28;19916;-42
2022/08/12 14:08:32;;;;;;;;;;;;;;;;;;5094858;28;19919;-43
2022/08/12 14:10:58;;;;;;;;;;;;;;;;;;5094588;28;19927;-42
2022/08/12 14:13:25;;;;;;;;;;;;;;;;;;5094571;28;19919;-42
2022/08/12 14:15:51;;;;;;;;;;;;;;;;;;5093599;28;20003;-45
2022/08/12 14:18:17;;;;;;;;;;;;;;;;;;5094414;28;20297;-42
2022/08/12 14:20:42;;;;;;;;;;;;;;;;;;5094533;28;19916;-42
2022/08/12 14:23:08;;;;;;;;;;;;;;;;;;5094378;28;19912;-42
2022/08/12 14:25:33;;;;;;;;;;;;;;;;;;5094397;28;19908;-42
2022/08/12 14:27:58;;;;;;;;;;;;;;;;;;5094661;28;19923;-42
2022/08/12 14:30:25;;;;;;;;;;;;;;;;;;5094564;28;20336;-42
2022/08/12 14:32:51;;;;;;;;;;;;;;;;;;5094573;28;20290;-42
2022/08/12 14:35:18;;;;;;;;;;;;;;;;;;5094450;28;19912;-42
2022/08/12 14:37:43;;;;;;;;;;;;;;;;;;5094515;28;19958;-42
2022/08/12 14:40:10;;;;;;;;;;;;;;;;;;5093929;28;20350;-42
2022/08/12 14:42:36;;;;;;;;;;;;;;;;;;5094048;28;19918;-42
2022/08/12 14:45:01;;;;;;;;;;;;;;;;;;5094240;28;20003;-43
2022/08/12 14:47:26;;;;;;;;;;;;;;;;;;5094049;28;19941;-42
2022/08/12 14:49:52;;;;;;;;;;;;;;;;;;5094040;28;19908;-42
2022/08/12 14:52:17;;;;;;;;;;;;;;;;;;5093903;28;19916;-43
2022/08/12 14:54:42;;;;;;;;;;;;;;;;;;5094029;28;20247;-43
2022/08/12 14:57:10;;;;;;;;;;;;;;;;;;5093812;28;19916;-43
2022/08/12 15:02:19;;;;;;;;;;;;;;;;;;5093686;28;19927;-42
2022/08/12 15:04:44;;;;;;;;;;;;;;;;;;5093950;28;19909;-42
2022/08/12 15:07:12;;;;;;;;;;;;;;;;;;5093532;28;20305;-42
2022/08/12 15:09:38;;;;;;;;;;;;;;;;;;5093576;28;19914;-42
2022/08/12 15:12:04;;;;;;;;;;;;;;;;;;5093727;28;19912;-43
2022/08/12 15:14:29;;;;;;;;;;;;;;;;;;5093358;28;19908;-43
2022/08/12 15:16:55;;;;;;;;;;;;;;;;;;5093466;28;20388;-43
2022/08/12 15:19:20;;;;;;;;;;;;;;;;;;5091651;28;19959;-42
2022/08/12 15:21:46;;;;;;;;;;;;;;;;;;5093538;28;19973;-46
2022/08/12 15:24:12;;;;;;;;;;;;;;;;;;5093309;28;20312;-43
2022/08/12 15:26:39;;;;;;;;;;;;;;;;;;5092979;28;19918;-43
2022/08/12 15:29:05;;;;;;;;;;;;;;;;;;5093103;28;19920;-42
2022/08/12 15:31:32;;;;;;;;;;;;;;;;;;5093468;28;19969;-43
2022/08/12 15:33:57;;;;;;;;;;;;;;;;;;5091879;28;19913;-42
2022/08/12 15:36:23;;;;;;;;;;;;;;;;;;5092850;28;19912;-43
2022/08/12 15:38:48;;;;;;;;;;;;;;;;;;5093326;28;20270;-42
2022/08/12 15:41:15;;;;;;;;;;;;;;;;;;5093114;28;19920;-43
2022/08/12 15:43:40;;;;;;;;;;;;;;;;;;5140043;22;20451;-43
2022/08/12 15:46:05;;;;;;;;;;;;;;;;;;5032898;28;19913;-43
2022/08/12 15:48:33;;;;;;;;;;;;;;;;;;5032841;28;19913;-42
2022/08/12 15:50:59;;;;;;;;;;;;;;;;;;5032736;28;19913;-43
2022/08/12 15:56:08;;;;;;;;;;;;;;;;;;5032885;28;19933;-44
2022/08/12 15:58:34;;;;;;;;;;;;;;;;;;5014904;28;19914;-43
2022/08/12 16:01:00;;;;;;;;;;;;;;;;;;5047902;28;20358;-42
2022/08/12 16:03:27;;;;;;;;;;;;;;;;;;5032756;28;20004;-43
2022/08/12 16:05:52;;;;;;;;;;;;;;;;;;5032531;28;19960;-43
2022/08/12 16:08:18;;;;;;;;;;;;;;;;;;5032370;28;19987;-43
2022/08/12 16:10:43;;;;;;;;;;;;;;;;;;5032407;28;19952;-43
2022/08/12 16:13:09;;;;;;;;;;;;;;;;;;5032454;28;19952;-43
2022/08/12 16:15:36;;;;;;;;;;;;;;;;;;5032229;28;20384;-43
2022/08/12 16:18:03;;;;;;;;;;;;;;;;;;5032543;28;19913;-43
2022/08/12 16:20:28;;;;;;;;;;;;;;;;;;5032128;28;19918;-43
2022/08/12 16:22:54;;;;;;;;;;;;;;;;;;5032334;28;19915;-43
2022/08/12 16:25:19;;;;;;;;;;;;;;;;;;5032146;28;20271;-43
2022/08/12 16:27:44;;;;;;;;;;;;;;;;;;5047612;28;19915;-43
2022/08/12 16:30:10;;;;;;;;;;;;;;;;;;5032497;28;19913;-43
2022/08/12 16:32:36;;;;;;;;;;;;;;;;;;5032027;28;19952;-43
2022/08/12 16:35:05;;;;;;;;;;;;;;;;;;5032036;28;19924;-42
2022/08/12 16:37:32;;;;;;;;;;;;;;;;;;5047379;28;20427;-42
2022/08/12 16:39:58;;;;;;;;;;;;;;;;;;5031178;28;19960;-42
2022/08/12 16:42:24;;;;;;;;;;;;;;;;;;5031868;28;19924;-42
2022/08/12 16:44:50;;;;;;;;;;;;;;;;;;5031714;28;19925;-43
2022/08/12 16:47:15;;;;;;;;;;;;;;;;;;5031828;28;19966;-43
2022/08/12 16:49:41;;;;;;;;;;;;;;;;;;5031857;28;19913;-43
2022/08/12 16:52:08;;;;;;;;;;;;;;;;;;5031917;28;19909;-43
2022/08/12 16:54:33;;;;;;;;;;;;;;;;;;5014016;28;20433;-42
2022/08/12 16:56:59;;;;;;;;;;;;;;;;;;5031764;28;19959;-44
2022/08/12 16:59:25;;;;;;;;;;;;;;;;;;5031697;28;19945;-44
2022/08/12 17:01:50;;;;;;;;;;;;;;;;;;5031590;28;20386;-43
2022/08/12 17:04:16;;;;;;;;;;;;;;;;;;5031640;28;19913;-43
2022/08/12 17:06:46;;;;;;;;;;;;;;;;;;5013884;28;20367;-42
2022/08/12 17:09:12;;;;;;;;;;;;;;;;;;5031599;28;19913;-43
2022/08/12 17:11:38;;;;;;;;;;;;;;;;;;5031609;28;20016;-43
2022/08/12 17:14:03;;;;;;;;;;;;;;;;;;5031556;28;20449;-42
2022/08/12 17:16:28;;;;;;;;;;;;;;;;;;5013783;28;19913;-42
2022/08/12 17:18:54;;;;;;;;;;;;;;;;;;5031890;28;19913;-42
2022/08/12 17:21:19;;;;;;;;;;;;;;;;;;5013851;28;20375;-42
2022/08/12 17:23:49;;;;;;;;;;;;;;;;;;5031465;28;19914;-43
2022/08/12 17:26:15;;;;;;;;;;;;;;;;;;5031586;28;19967;-43
2022/08/12 17:28:40;;;;;;;;;;;;;;;;;;5031376;28;20330;-42
2022/08/12 17:31:05;;;;;;;;;;;;;;;;;;5031716;28;19910;-43
2022/08/12 17:33:31;;;;;;;;;;;;;;;;;;5031441;28;19948;-42
2022/08/12 17:35:57;;;;;;;;;;;;;;;;;;5031448;28;19963;-43
2022/08/12 17:38:23;;;;;;;;;;;;;;;;;;5031337;28;19917;-43
2022/08/12 17:40:48;;;;;;;;;;;;;;;;;;5031294;28;19921;-43
2022/08/12 17:43:15;;;;;;;;;;;;;;;;;;5031161;28;19917;-43
2022/08/12 17:45:46;;;;;;;;;;;;;;;;;;5031345;28;20020;-43
2022/08/12 17:48:11;;;;;;;;;;;;;;;;;;5030099;28;20275;-42
2022/08/12 17:50:37;;;;;;;;;;;;;;;;;;5014922;28;19913;-43
2022/08/12 17:53:02;;;;;;;;;;;;;;;;;;5017329;28;19921;-43
2022/08/12 17:55:31;;;;;;;;;;;;;;;;;;5035078;28;19913;-43
2022/08/12 17:57:56;;;;;;;;;;;;;;;;;;5034766;28;19917;-44
2022/08/12 18:00:24;;;;;;;;;;;;;;;;;;5034764;28;19995;-43
2022/08/12 18:02:49;;;;;;;;;;;;;;;;;;5034818;28;20412;-42
2022/08/12 18:05:16;;;;;;;;;;;;;;;;;;5034952;28;19909;-42
2022/08/12 18:07:43;;;;;;;;;;;;;;;;;;5034621;28;19913;-41
2022/08/12 18:10:08;;;;;;;;;;;;;;;;;;5034877;28;20003;-42
2022/08/12 18:12:43;;;;;;;;;;;;;;;;;;5034500;28;20020;-42
2022/08/12 18:15:11;;;;;;;;;;;;;;;;;;5034522;28;20363;-43
2022/08/12 18:17:37;;;;;;;;;;;;;;;;;;5034709;28;19913;-43
2022/08/12 18:20:02;;;;;;;;;;;;;;;;;;5034564;28;20393;-44
2022/08/12 18:22:28;;;;;;;;;;;;;;;;;;5034584;28;19995;-43
2022/08/12 18:24:53;;;;;;;;;;;;;;;;;;5016648;28;19917;-42
2022/08/12 18:27:18;;;;;;;;;;;;;;;;;;5034578;28;20351;-42
2022/08/12 18:29:44;;;;;;;;;;;;;;;;;;5016407;28;20039;-42
2022/08/12 18:32:09;;;;;;;;;;;;;;;;;;5034282;28;19913;-43